메인 페이지
METAR-TAF:

METAR-TAF

공항 :

Bauru, 상파울루, 브라질

위도: 22-19S, 경도: 049-04W, 고도: 590m

현재 날씨관측

예보는 22분 전, 09:00시(UTC)에 발표되었습니다.
3kt
온도 22°C
습도 94%
기압 1015 hPa
시정 10km 이상
고도 2500ft 상공 구름 조금
고도 7000ft 상공 구름 많음

METAR: SBBU 010900Z 08003KT 9999 FEW025 BKN070 22/21 Q1015

시각: 07:22 (09:22 UTC)

예보

예보는 5 시간 37분 전, 03:45시(UTC)에 발표되었습니다.
예보 대상 시간: 01일 06시부터 01일 18시까지 (UTC)
북북동5kt
시정: 9000m
고도 3000ft 상공 구름 보통
전환 중
01일 07시부터 01일 09시까지 (UTC)
고도 400ft 상공 구름 조금
확률 30%
01일 09시부터 01일 12시까지 (UTC)
북북동6kt
고도 700ft 상공 구름 많음
전환 중
01일 13시부터 01일 15시까지 (UTC)
북북서6kt
일시적
01일 15시부터 01일 18시까지 (UTC)
시정: 7000m
고도 3500ft 상공 구름 보통
고도 4000ft 상공 구름 조금, 적란운.
시계 내 뇌우

TAF: SBBU 010345Z 0106/0118 02005KT 9000 SCT030 TN21/0109Z TX27/0116Z BECMG 0107/0109 FEW004 PROB30 0109/0112 02006KT BKN007 BECMG 0113/0115 34006KT TEMPO 0115/0118 7000 VCTS SCT035 FEW040CB RMK PHG

4,000개 이상의 공항 관측 자료 및 예보 (METAR 및 TAF 보고).

지도상에서 검색 가능한 기상관측소가 노란 점과 빨간 점으로 표시되어 있습니다.

기상관측소 명을 보려면 표시 위로 마우스를 이동하세요.

날씨 관측과 예보를 보려면 클릭하세요.

지도 변경 : 확대하려면 엑스 표시가 있는 녹색 버튼, 축소하려면 빼기 표시가 있는 녹색 버튼, 다음 페이지의 지도를 보려면 녹색 화살표를 클릭하세요.


METAR-TAF: